Terminal Aerodrome Forecast
Issued by NWS

Home | Current Version | Previous Version | Text Only | Print | Product List | Glossary On
Versions: 1 2 3 4 5 6 7 8 9 10 11 12 13 14 15 16
000
FTUS42 KFFC 240300 AAA
TAFPDK
TAF AMD
KPDK 240330Z 2404/2424 07006KT P6SM FEW030
     FM241400 07010G17KT P6SM SCT025 SCT045
     FM241700 06010G18KT P6SM BKN040
     FM242100 06010KT P6SM SCT045=

USA.gov is the U.S. government's official web portal to all federal, state and local government web resources and services.